| Date | Time | Temp. (oF) | Dew Point (oF) | Rel. Hum. (%) | Press. (in.) | Wind Dir. | Wind Speed (mph) | Hourly Rainfall (in.) |
|
|---|---|---|---|---|---|---|---|---|---|
| 1 | miss | miss | miss | miss | miss | miss | miss | miss | |
| 2 | 03/19 | 21:49 | 42 | 35 | 79 | 30.36 | ENE | 5 | 0.00 |
| 3 | miss | miss | miss | miss | miss | miss | miss | miss | |
| 4 | 03/19 | 21:00 | 42 | 35 | 79 | 30.35 | ESE | 4 | 0.00 |
| 5 | 03/19 | 20:00 | 43 | 37 | 80 | 30.37 | E | 2 | 0.00 |
| 6 | 03/19 | 19:00 | 43 | 36 | 78 | 30.35 | NE | 3 | 0.00 |
| 7 | miss | miss | miss | miss | miss | miss | miss | miss | |
| 8 | 03/19 | 16:49 | 44 | 37 | 77 | 30.35 | NE | 4 | 0.00 |
| 9 | 03/19 | 16:00 | 46 | 36 | 68 | 30.34 | NNE | 1 | 0.00 |
| 10 | 03/19 | 15:00 | 47 | 36 | 67 | 30.34 | N | 4 | 0.00 |
| 11 | 03/19 | 14:00 | 47 | 36 | 66 | 30.36 | N | 10 | 0.00 |
| 12 | 03/19 | 13:00 | 46 | 35 | 67 | 30.34 | SE | 1 | 0.00 |
| 13 | 03/19 | 12:00 | 46 | 37 | 71 | 30.37 | NE | 7 | 0.00 |
| 14 | 03/19 | 11:00 | 44 | 35 | 71 | 30.39 | NW | 4 | 0.00 |
| 15 | 03/19 | 10:00 | 42 | 34 | 75 | 30.40 | WNW | 4 | 0.00 |
| 16 | 03/19 | 09:00 | 41 | 37 | 87 | 30.40 | NW | 2 | 0.00 |
| 17 | 03/19 | 08:00 | 38 | 37 | 100 | 30.38 | NW | 3 | 0.00 |
| 18 | 03/19 | 07:00 | 37 | 36 | 100 | 30.37 | WNW | 2 | 0.00 |
| 19 | 03/19 | 06:00 | 37 | 36 | 100 | 30.35 | WNW | 3 | 0.00 |
| 20 | 03/19 | 05:00 | 37 | 36 | 100 | 30.32 | NW | 2 | 0.00 |
| 21 | 03/19 | 04:00 | 36 | 36 | 100 | 30.31 | NNW | 3 | 0.00 |
| 22 | 03/19 | 03:00 | 36 | 36 | 100 | 30.30 | NW | 4 | 0.00 |
| 23 | 03/19 | 02:00 | 37 | 36 | 100 | 30.30 | NW | 4 | 0.00 |
| 24 | 03/19 | 01:00 | 38 | 37 | 100 | 30.30 | WNW | 2 | 0.00 |